Time;durP1;ratioP1;P1;durP2;ratioP2;P2;SDS_P1;SDS_P2;PMS_P1;PMS_P2;Temp;Humidity;BMP_temperature;BMP_pressure;BME280_temperature;BME280_humidity;BME280_pressure;Samples;Min_cycle;Max_cycle;Signal;HPM_P1;HPM_P2
2022/11/06 00:00:17;;;;;;;7.60;7.07;;;7.10;99.90;;;;;;5053646;28;20178;-66
2022/11/06 00:02:44;;;;;;;7.20;6.73;;;7.10;99.90;;;;;;5051890;28;20178;-66
2022/11/06 00:07:54;;;;;;;6.47;6.13;;;7.10;99.90;;;;;;5072565;28;20185;-65
2022/11/06 00:10:20;;;;;;;7.27;6.67;;;7.20;99.90;;;;;;5053357;28;20178;-66
2022/11/06 00:12:46;;;;;;;7.70;6.37;;;7.30;99.90;;;;;;5050896;28;20186;-66
2022/11/06 00:15:12;;;;;;;8.07;6.47;;;7.20;99.90;;;;;;5068623;28;20740;-66
2022/11/06 00:17:38;;;;;;;7.30;6.73;;;7.30;99.90;;;;;;5072118;28;20170;-67
2022/11/06 00:20:05;;;;;;;7.33;6.83;;;7.30;99.90;;;;;;5056267;28;20175;-66
2022/11/06 00:22:37;;;;;;;6.53;6.20;;;7.30;99.90;;;;;;5052272;28;20692;-66
2022/11/06 00:25:04;;;;;;;5.90;5.60;;;7.40;99.90;;;;;;5066215;28;20259;-66
2022/11/06 00:27:30;;;;;;;6.97;6.47;;;7.40;99.90;;;;;;5072007;28;20182;-67
2022/11/06 00:29:56;;;;;;;8.30;6.47;;;7.40;99.90;;;;;;5059241;28;20560;-66
2022/11/06 00:32:21;;;;;;;7.87;6.13;;;7.40;99.90;;;;;;5051128;28;20183;-66
2022/11/06 00:34:47;;;;;;;6.97;6.47;;;7.50;99.90;;;;;;5062831;28;20212;-66
2022/11/06 00:37:13;;;;;;;7.07;6.47;;;7.50;99.90;;;;;;5071807;28;20180;-67
2022/11/06 00:39:39;;;;;;;7.47;6.97;;;7.50;99.90;;;;;;5061511;28;20175;-66
2022/11/06 00:42:04;;;;;;;6.73;6.43;;;7.50;99.90;;;;;;5051794;28;20182;-66
2022/11/06 00:44:30;;;;;;;6.93;6.10;;;7.60;99.90;;;;;;5051529;28;20202;-67
2022/11/06 00:46:55;;;;;;;7.03;6.73;;;7.60;99.90;;;;;;5051620;28;20179;-67
2022/11/06 00:49:21;;;;;;;7.40;7.03;;;7.60;99.90;;;;;;5057374;28;20178;-66
2022/11/06 00:51:47;;;;;;;7.07;6.67;;;7.60;99.90;;;;;;5071351;28;20189;-67
2022/11/06 00:54:13;;;;;;;7.67;7.23;;;7.60;99.90;;;;;;5066679;28;20213;-67
2022/11/06 00:56:39;;;;;;;8.23;7.63;;;7.60;99.90;;;;;;5051910;28;20171;-67
2022/11/06 00:59:09;;;;;;;8.23;7.67;;;7.60;99.90;;;;;;5052183;28;20266;-67
2022/11/06 01:01:40;;;;;;;7.73;7.23;;;7.60;99.90;;;;;;5051432;28;20175;-67
2022/11/06 01:04:11;;;;;;;7.17;6.83;;;7.60;99.90;;;;;;5069758;28;20624;-67
2022/11/06 01:06:41;;;;;;;7.43;6.93;;;7.60;99.90;;;;;;5070111;28;20170;-66
2022/11/06 01:09:08;;;;;;;7.80;7.30;;;7.60;99.90;;;;;;5059074;22;20227;-69
2022/11/06 01:11:36;;;;;;;7.33;6.73;;;7.60;99.90;;;;;;5031577;28;20183;-69
2022/11/06 01:14:04;;;;;;;6.93;6.53;;;7.60;99.90;;;;;;5031350;28;20202;-69
2022/11/06 01:16:30;;;;;;;8.40;7.90;;;7.60;99.90;;;;;;5031494;28;20540;-67
2022/11/06 01:18:57;;;;;;;7.23;6.83;;;7.60;99.90;;;;;;5031169;28;20273;-67
2022/11/06 01:21:25;;;;;;;9.50;7.03;;;7.60;99.90;;;;;;5031013;28;20229;-67
2022/11/06 01:23:58;;;;;;;11.77;6.97;;;7.70;99.90;;;;;;5031371;28;20657;-67
2022/11/06 01:26:25;;;;;;;7.20;6.80;;;7.70;99.90;;;;;;5031345;28;20183;-68
2022/11/06 01:28:51;;;;;;;6.77;6.47;;;7.70;99.90;;;;;;5030110;28;20237;-68
2022/11/06 01:31:20;;;;;;;6.73;6.37;;;7.70;99.90;;;;;;5030935;28;20176;-67
2022/11/06 01:33:46;;;;;;;7.20;6.60;;;7.70;99.90;;;;;;5029998;28;20171;-67
2022/11/06 01:36:14;;;;;;;7.20;6.47;;;7.80;99.90;;;;;;5031303;28;20179;-67
2022/11/06 01:38:45;;;;;;;6.37;6.07;;;7.80;99.90;;;;;;5031245;28;20226;-67
2022/11/06 01:41:16;;;;;;;13.57;7.07;;;7.80;99.90;;;;;;5030820;28;20187;-68
2022/11/06 01:43:44;;;;;;;6.43;6.07;;;7.80;99.90;;;;;;5032619;28;20175;-68
2022/11/06 01:46:10;;;;;;;8.97;6.50;;;7.80;99.90;;;;;;5033709;28;20181;-68
2022/11/06 01:48:38;;;;;;;7.57;6.90;;;7.80;99.90;;;;;;5035048;28;20274;-68
2022/11/06 01:51:05;;;;;;;6.53;6.03;;;7.80;99.90;;;;;;5034538;28;20258;-68
2022/11/06 01:53:30;;;;;;;6.47;6.07;;;7.70;99.90;;;;;;5034936;28;20270;-68
2022/11/06 01:56:00;;;;;;;6.17;5.77;;;7.70;99.90;;;;;;5034849;28;20666;-67
2022/11/06 01:58:29;;;;;;;6.70;6.40;;;7.60;99.90;;;;;;5034983;28;20195;-68
2022/11/06 02:00:55;;;;;;;7.63;7.23;;;7.60;99.90;;;;;;5033122;28;20221;-68
2022/11/06 02:03:20;;;;;;;6.67;6.33;;;7.60;99.90;;;;;;5034111;28;20250;-68
2022/11/06 02:05:46;;;;;;;7.07;6.33;;;7.60;99.90;;;;;;5034801;28;20171;-68
2022/11/06 02:08:15;;;;;;;6.53;6.23;;;7.50;99.90;;;;;;5034477;28;20226;-68
2022/11/06 02:10:41;;;;;;;6.63;6.17;;;7.50;99.90;;;;;;5033199;28;20180;-68
2022/11/06 02:13:37;;;;;;;6.50;6.10;;;7.50;99.90;;;;;;5033208;28;20270;-68
2022/11/06 02:16:12;;;;;;;7.20;6.53;;;7.50;99.90;;;;;;5034650;28;20657;-68
2022/11/06 02:18:55;;;;;;;6.47;6.17;;;7.40;99.90;;;;;;5034459;28;20660;-68
2022/11/06 02:21:56;;;;;;;6.43;6.03;;;7.40;99.90;;;;;;5034117;28;20527;-68
2022/11/06 02:24:49;;;;;;;7.60;6.97;;;7.40;99.90;;;;;;4997761;28;20271;-69
2022/11/06 02:27:22;;;;;;;7.13;6.47;;;7.30;99.90;;;;;;5034436;28;20214;-68
2022/11/06 02:30:04;;;;;;;8.13;6.90;;;7.30;99.90;;;;;;5033878;28;20544;-68
2022/11/06 02:32:48;;;;;;;7.00;6.27;;;7.20;99.90;;;;;;5034131;28;20680;-68
2022/11/06 02:35:19;;;;;;;7.67;6.80;;;7.20;99.90;;;;;;5034184;28;20671;-68
2022/11/06 02:37:47;;;;;;;6.80;6.47;;;7.20;99.90;;;;;;5033827;28;20199;-68
2022/11/06 02:40:14;;;;;;;8.00;6.53;;;7.20;99.90;;;;;;5033860;28;20302;-68
2022/11/06 02:42:44;;;;;;;9.90;7.57;;;7.20;99.90;;;;;;5033893;28;20187;-68
2022/11/06 02:45:13;;;;;;;6.67;6.17;;;7.20;99.90;;;;;;5034082;28;20177;-68
2022/11/06 02:47:40;;;;;;;6.23;5.73;;;7.20;99.90;;;;;;5033617;28;20195;-69
2022/11/06 02:50:14;;;;;;;8.47;7.77;;;7.20;99.90;;;;;;5033595;28;20176;-68
2022/11/06 02:52:51;;;;;;;6.50;6.13;;;7.20;99.90;;;;;;5033698;28;20189;-68
2022/11/06 02:55:39;;;;;;;8.70;6.90;;;7.20;99.90;;;;;;5033178;28;20302;-68
2022/11/06 02:58:12;;;;;;;6.97;6.47;;;7.20;99.90;;;;;;5033302;28;20747;-68
2022/11/06 03:00:43;;;;;;;6.07;5.77;;;7.20;99.90;;;;;;5032231;28;20167;-68
2022/11/06 03:03:28;;;;;;;6.27;5.97;;;7.20;99.90;;;;;;5032147;28;20652;-68
2022/11/06 03:06:03;;;;;;;6.17;5.87;;;7.20;99.90;;;;;;5033559;28;20306;-68
2022/11/06 03:08:49;;;;;;;6.50;6.20;;;7.20;99.90;;;;;;5033351;28;20584;-68
2022/11/06 03:11:37;;;;;;;6.60;6.30;;;7.20;99.90;;;;;;5033369;28;20258;-69
2022/11/06 03:14:53;;;;;;;6.87;6.40;;;7.20;99.90;;;;;;5031897;28;20855;-68
2022/11/06 03:17:33;;;;;;;6.47;6.17;;;7.20;99.90;;;;;;4991514;28;20211;-68
2022/11/06 03:20:19;;;;;;;6.97;6.47;;;7.20;99.90;;;;;;4991443;28;20719;-68
2022/11/06 03:22:57;;;;;;;6.13;5.73;;;7.30;99.90;;;;;;5024025;28;20187;-68
2022/11/06 03:25:24;;;;;;;7.83;7.17;;;7.30;99.90;;;;;;5033187;28;20182;-68
2022/11/06 03:28:08;;;;;;;11.13;7.23;;;7.40;99.90;;;;;;5033112;28;20183;-68
2022/11/06 03:30:41;;;;;;;6.20;5.90;;;7.40;99.90;;;;;;5032826;28;20179;-68
2022/11/06 03:33:18;;;;;;;6.43;6.13;;;7.40;99.90;;;;;;5033157;28;20186;-68
2022/11/06 03:35:49;;;;;;;7.30;6.70;;;7.40;99.90;;;;;;5031432;28;20264;-68
2022/11/06 03:38:21;;;;;;;10.37;6.47;;;7.40;99.90;;;;;;5033146;28;20195;-68
2022/11/06 03:40:51;;;;;;;6.93;6.53;;;7.50;99.90;;;;;;5032487;28;20546;-68
2022/11/06 03:43:21;;;;;;;7.83;7.20;;;7.50;99.90;;;;;;5032984;28;20637;-68
2022/11/06 03:45:50;;;;;;;7.67;7.27;;;7.40;99.90;;;;;;5032832;28;20622;-68
2022/11/06 03:48:25;;;;;;;8.23;6.50;;;7.40;99.90;;;;;;5033041;28;20206;-69
2022/11/06 03:51:11;;;;;;;7.37;6.53;;;7.30;99.90;;;;;;5032114;28;20179;-68
2022/11/06 03:53:44;;;;;;;6.90;6.60;;;7.20;99.90;;;;;;5032833;28;20246;-68
2022/11/06 03:56:20;;;;;;;6.17;5.80;;;7.20;99.90;;;;;;5032479;28;20183;-67
2022/11/06 03:58:48;;;;;;;6.57;6.17;;;7.20;99.90;;;;;;5032577;28;20229;-68
2022/11/06 04:01:16;;;;;;;6.30;5.97;;;7.10;99.90;;;;;;5030662;28;20179;-66
2022/11/06 04:04:03;;;;;;;6.57;5.70;;;7.10;99.90;;;;;;5032571;28;20183;-67
2022/11/06 04:06:39;;;;;;;9.10;5.90;;;7.10;99.90;;;;;;5031385;28;20187;-68
2022/11/06 04:14:41;;;;;;;6.63;6.13;;;7.00;99.90;;;;;;5016544;28;20278;-68
2022/11/06 04:17:11;;;;;;;6.00;5.50;;;7.00;99.90;;;;;;5032092;28;20195;-67
2022/11/06 04:19:39;;;;;;;5.97;5.57;;;7.00;99.90;;;;;;5031820;28;20244;-67
2022/11/06 04:22:43;;;;;;;6.90;5.43;;;7.00;99.90;;;;;;5032129;28;20230;-67
2022/11/06 04:28:33;;;;;;;6.83;6.33;;;7.00;99.90;;;;;;5031395;28;20230;-67
2022/11/06 04:31:18;;;;;;;6.00;5.70;;;7.00;99.90;;;;;;5031403;28;20179;-68
2022/11/06 04:33:55;;;;;;;6.53;6.00;;;7.00;99.90;;;;;;5030398;28;20518;-67
2022/11/06 04:36:26;;;;;;;5.90;5.60;;;6.90;99.90;;;;;;5030853;28;20175;-68
2022/11/06 04:39:10;;;;;;;5.80;5.40;;;6.90;99.90;;;;;;5031767;28;20253;-68
2022/11/06 04:42:05;;;;;;;5.93;5.37;;;6.90;99.90;;;;;;5031962;28;20242;-67
2022/11/06 04:44:40;;;;;;;6.70;6.23;;;6.90;99.90;;;;;;5024060;28;20226;-68
2022/11/06 04:47:14;;;;;;;6.10;5.70;;;6.80;99.90;;;;;;5030541;28;20263;-68
2022/11/06 04:49:41;;;;;;;8.27;5.17;;;6.80;99.90;;;;;;5030085;28;20180;-68
2022/11/06 04:52:18;;;;;;;6.53;6.17;;;6.80;99.90;;;;;;5031696;28;20194;-67
2022/11/06 04:54:45;;;;;;;6.13;5.77;;;6.80;99.90;;;;;;5031501;28;20230;-68
2022/11/06 04:57:11;;;;;;;5.90;5.60;;;6.80;99.90;;;;;;5031870;28;20180;-67
2022/11/06 04:59:36;;;;;;;6.60;5.90;;;6.80;99.90;;;;;;5031143;28;20194;-67
2022/11/06 05:02:04;;;;;;;7.00;6.40;;;6.80;99.90;;;;;;5031092;28;20176;-68
2022/11/06 05:04:30;;;;;;;5.87;5.43;;;6.80;99.90;;;;;;5031476;28;20198;-67
2022/11/06 05:06:56;;;;;;;5.47;5.17;;;6.90;99.90;;;;;;5031123;28;20651;-67
2022/11/06 05:09:21;;;;;;;6.50;5.90;;;6.90;99.90;;;;;;5031320;28;20198;-68
2022/11/06 05:11:47;;;;;;;5.67;5.37;;;6.90;99.90;;;;;;5031717;28;20325;-67
2022/11/06 05:14:13;;;;;;;5.53;5.33;;;6.90;99.90;;;;;;5031112;28;20568;-67
2022/11/06 05:16:38;;;;;;;7.10;6.60;;;7.00;99.90;;;;;;5031561;28;20172;-68
2022/11/06 05:19:04;;;;;;;6.03;5.63;;;7.00;99.90;;;;;;5030345;28;20203;-66
2022/11/06 05:24:14;;;;;;;6.90;6.40;;;7.10;99.90;;;;;;5031433;28;20182;-68
2022/11/06 05:26:40;;;;;;;6.43;6.13;;;7.10;99.90;;;;;;5031187;28;20187;-67
2022/11/06 05:29:05;;;;;;;6.83;6.47;;;7.10;99.90;;;;;;5030955;28;20202;-68
2022/11/06 05:31:31;;;;;;;8.60;7.00;;;7.10;99.90;;;;;;5031114;28;20258;-67
2022/11/06 05:33:56;;;;;;;6.93;6.60;;;7.10;99.90;;;;;;5031107;28;20261;-67
2022/11/06 05:36:22;;;;;;;7.00;6.67;;;7.10;99.90;;;;;;5031154;28;20178;-67
2022/11/06 05:38:48;;;;;;;7.73;7.27;;;7.10;99.90;;;;;;5031061;28;20188;-67
2022/11/06 05:41:13;;;;;;;7.83;7.10;;;7.20;99.90;;;;;;5029543;28;20258;-67
2022/11/06 05:43:39;;;;;;;7.37;6.90;;;7.20;99.90;;;;;;5031197;28;20637;-67
2022/11/06 05:46:04;;;;;;;8.87;6.83;;;7.20;99.90;;;;;;5030847;28;20179;-67
2022/11/06 05:48:30;;;;;;;7.27;6.80;;;7.20;99.90;;;;;;5031128;28;20639;-67
2022/11/06 05:51:03;;;;;;;6.67;6.37;;;7.20;99.90;;;;;;5030608;28;20185;-68
2022/11/06 05:53:30;;;;;;;6.73;6.23;;;7.20;99.90;;;;;;5031228;28;20175;-68
2022/11/06 05:55:56;;;;;;;11.63;6.70;;;7.20;99.90;;;;;;5030641;28;20195;-67
2022/11/06 05:58:22;;;;;;;6.67;6.03;;;7.20;99.90;;;;;;5031069;28;20294;-67
2022/11/06 06:00:47;;;;;;;7.70;7.30;;;7.20;99.90;;;;;;5030353;28;20171;-67
2022/11/06 06:03:13;;;;;;;7.17;6.83;;;7.20;99.90;;;;;;5028018;28;20258;-67
2022/11/06 06:05:39;;;;;;;7.77;6.83;;;7.20;99.90;;;;;;5031150;28;20179;-67
2022/11/06 06:08:05;;;;;;;7.23;6.47;;;7.20;99.90;;;;;;5030627;28;20219;-68
2022/11/06 06:10:31;;;;;;;7.10;6.13;;;7.20;99.90;;;;;;5030435;28;20271;-68
2022/11/06 06:12:56;;;;;;;7.73;7.07;;;7.20;99.90;;;;;;5030854;28;20262;-67
2022/11/06 06:15:22;;;;;;;8.73;6.57;;;7.20;99.90;;;;;;5030678;28;20776;-68
2022/11/06 06:17:48;;;;;;;6.67;6.07;;;7.20;99.90;;;;;;5030842;28;20245;-68
2022/11/06 06:20:13;;;;;;;6.27;5.97;;;7.30;99.90;;;;;;5030265;28;20187;-68
2022/11/06 06:22:39;;;;;;;7.10;6.47;;;7.10;99.90;;;;;;5030976;28;20207;-68
2022/11/06 06:25:05;;;;;;;6.83;6.43;;;7.10;99.90;;;;;;5030486;28;20186;-67
2022/11/06 06:27:31;;;;;;;8.30;6.20;;;7.10;99.90;;;;;;5030839;28;20195;-68
2022/11/06 06:29:56;;;;;;;6.70;6.30;;;7.10;99.90;;;;;;5031188;28;20338;-67
2022/11/06 06:32:22;;;;;;;7.30;6.00;;;7.00;99.90;;;;;;5034446;28;20475;-68
2022/11/06 06:34:48;;;;;;;8.80;6.53;;;7.00;99.90;;;;;;5033912;28;20205;-67
2022/11/06 06:37:13;;;;;;;6.00;5.70;;;6.90;99.90;;;;;;5034150;28;20187;-68
2022/11/06 06:39:39;;;;;;;7.87;6.80;;;6.90;99.90;;;;;;5033695;28;20242;-67
2022/11/06 06:42:05;;;;;;;6.60;6.20;;;6.90;99.90;;;;;;5034012;28;20184;-68
2022/11/06 06:44:31;;;;;;;6.57;6.17;;;6.90;99.90;;;;;;5034027;28;20247;-67
2022/11/06 06:46:56;;;;;;;5.87;5.57;;;6.90;99.90;;;;;;5033901;28;20549;-67
2022/11/06 06:49:22;;;;;;;6.67;6.00;;;6.80;99.90;;;;;;5033495;28;20179;-67
2022/11/06 06:51:48;;;;;;;6.27;5.77;;;6.90;99.90;;;;;;5033982;28;20207;-68
2022/11/06 06:54:14;;;;;;;7.03;5.87;;;6.80;99.90;;;;;;5033459;28;20203;-68
2022/11/06 06:56:40;;;;;;;5.77;5.47;;;6.80;99.90;;;;;;5034041;28;20251;-67
2022/11/06 06:59:06;;;;;;;6.80;6.20;;;6.90;99.90;;;;;;5033085;28;20675;-67
2022/11/06 07:01:32;;;;;;;6.27;5.87;;;6.80;99.90;;;;;;5033233;28;20168;-68
2022/11/06 07:03:58;;;;;;;6.90;6.30;;;6.80;99.90;;;;;;5033350;28;20600;-68
2022/11/06 07:06:23;;;;;;;7.30;6.67;;;6.80;99.90;;;;;;5032508;28;20175;-67
2022/11/06 07:08:53;;;;;;;7.20;6.60;;;6.90;99.90;;;;;;5032449;28;20211;-67
2022/11/06 07:11:18;;;;;;;9.23;6.87;;;6.90;99.90;;;;;;5013528;28;20227;-67
2022/11/06 07:13:44;;;;;;;7.33;6.80;;;6.90;99.90;;;;;;5019108;28;20172;-68
2022/11/06 07:16:10;;;;;;;6.87;6.33;;;7.00;99.90;;;;;;5033329;28;20210;-67
2022/11/06 07:18:37;;;;;;;7.33;6.30;;;7.00;99.90;;;;;;5031775;28;20245;-68
2022/11/06 07:21:05;;;;;;;7.40;6.90;;;7.10;99.90;;;;;;5031813;28;20179;-68
2022/11/06 07:23:30;;;;;;;7.30;6.83;;;7.20;99.90;;;;;;5033248;28;20171;-67
2022/11/06 07:25:56;;;;;;;6.43;6.10;;;7.30;99.90;;;;;;5033323;28;20187;-67
2022/11/06 07:28:21;;;;;;;7.40;6.90;;;7.40;99.90;;;;;;5032008;28;20202;-68
2022/11/06 07:30:47;;;;;;;7.37;6.67;;;7.60;99.90;;;;;;5031650;28;20256;-69
2022/11/06 07:33:13;;;;;;;6.57;5.93;;;7.70;99.90;;;;;;5031565;28;20186;-67
2022/11/06 07:35:39;;;;;;;6.80;6.30;;;7.90;99.90;;;;;;5030627;28;20210;-68
2022/11/06 07:38:05;;;;;;;6.33;5.80;;;8.00;99.90;;;;;;5031187;28;20187;-67
2022/11/06 07:40:35;;;;;;;8.03;6.57;;;8.20;99.90;;;;;;5031147;28;20637;-67
2022/11/06 07:43:05;;;;;;;6.80;6.27;;;8.50;99.90;;;;;;5032586;28;20716;-67
2022/11/06 07:45:31;;;;;;;6.10;5.70;;;9.00;99.90;;;;;;5031642;28;20179;-67
2022/11/06 07:47:57;;;;;;;11.83;6.20;;;9.50;99.90;;;;;;5032364;28;20206;-68
2022/11/06 07:50:23;;;;;;;5.60;5.20;;;10.00;99.90;;;;;;5031142;28;20187;-67
2022/11/06 07:52:49;;;;;;;5.00;4.70;;;10.50;99.90;;;;;;5031354;28;20172;-67
2022/11/06 07:55:14;;;;;;;4.83;4.43;;;11.00;99.90;;;;;;5032638;28;20565;-68
2022/11/06 07:57:40;;;;;;;5.07;4.50;;;11.50;99.90;;;;;;5032370;28;20194;-68
2022/11/06 08:00:08;;;;;;;9.07;5.73;;;11.90;99.90;;;;;;5032158;28;20175;-68
2022/11/06 08:02:33;;;;;;;4.60;3.97;;;12.30;99.90;;;;;;5031183;28;20175;-67
2022/11/06 08:04:59;;;;;;;5.30;4.23;;;12.70;99.90;;;;;;5032335;28;20175;-68
2022/11/06 08:07:24;;;;;;;4.80;4.40;;;12.90;99.90;;;;;;5032561;28;20211;-68
2022/11/06 08:09:50;;;;;;;5.00;4.27;;;12.70;99.90;;;;;;5030532;28;20206;-68
2022/11/06 08:12:16;;;;;;;4.33;3.93;;;12.70;99.90;;;;;;5032230;28;20203;-68
2022/11/06 08:14:41;;;;;;;4.37;3.97;;;12.70;99.90;;;;;;5032146;28;20677;-68
2022/11/06 08:17:07;;;;;;;5.93;3.80;;;12.70;99.90;;;;;;5030701;28;20174;-68
2022/11/06 08:19:32;;;;;;;4.50;4.20;;;12.70;99.90;;;;;;5030627;28;20176;-68
2022/11/06 08:21:58;;;;;;;11.13;4.00;;;12.90;99.90;;;;;;5030683;28;20645;-68
2022/11/06 08:24:24;;;;;;;4.03;3.33;;;13.20;99.90;;;;;;5032186;28;20175;-68
2022/11/06 08:26:50;;;;;;;4.50;4.10;;;13.40;99.90;;;;;;5030708;28;20222;-68
2022/11/06 08:29:16;;;;;;;5.03;4.03;;;13.70;99.90;;;;;;5030496;28;20684;-68
2022/11/06 08:31:41;;;;;;;8.50;4.50;;;13.90;99.90;;;;;;5031369;28;20249;-68
2022/11/06 08:34:07;;;;;;;4.27;3.87;;;14.10;99.90;;;;;;5030490;28;20717;-68
2022/11/06 08:36:48;;;;;;;4.37;4.00;;;14.20;99.90;;;;;;5030698;28;20684;-68
2022/11/06 08:39:14;;;;;;;4.80;3.70;;;14.10;99.90;;;;;;5031524;28;20187;-68
2022/11/06 08:41:40;;;;;;;5.17;4.10;;;14.10;99.90;;;;;;5030512;28;20187;-67
2022/11/06 08:44:06;;;;;;;3.70;3.30;;;14.30;99.90;;;;;;5031750;28;20372;-67
2022/11/06 08:46:32;;;;;;;6.60;3.50;;;14.30;99.90;;;;;;5030433;28;20233;-67
2022/11/06 08:48:57;;;;;;;4.17;3.77;;;14.30;99.90;;;;;;5030032;28;20214;-67
2022/11/06 08:51:23;;;;;;;6.73;4.30;;;14.30;99.90;;;;;;5030324;28;20181;-67
2022/11/06 08:53:49;;;;;;;4.13;3.70;;;14.30;99.90;;;;;;5029497;28;20183;-67
2022/11/06 08:56:15;;;;;;;4.20;3.80;;;14.30;99.90;;;;;;5030279;28;20294;-68
2022/11/06 08:58:41;;;;;;;4.10;3.77;;;14.50;99.90;;;;;;5029996;28;20628;-67
2022/11/06 09:01:06;;;;;;;4.27;3.83;;;14.60;99.90;;;;;;5031278;28;20255;-68
2022/11/06 09:03:32;;;;;;;3.77;3.57;;;14.70;99.90;;;;;;5031642;28;20572;-68
2022/11/06 09:05:57;;;;;;;4.33;4.03;;;14.60;99.90;;;;;;5030166;28;20190;-68
2022/11/06 09:08:23;;;;;;;4.80;4.50;;;14.50;99.90;;;;;;5030425;28;20211;-67
2022/11/06 09:10:49;;;;;;;4.10;3.90;;;14.40;99.90;;;;;;5028635;28;20550;-68
2022/11/06 09:13:15;;;;;;;7.00;4.77;;;14.10;99.90;;;;;;5031626;28;20244;-67
2022/11/06 09:15:41;;;;;;;4.93;4.00;;;13.60;99.90;;;;;;5029912;28;20915;-67
2022/11/06 09:18:07;;;;;;;5.10;4.57;;;13.20;99.90;;;;;;5029528;28;20199;-67
2022/11/06 09:20:32;;;;;;;4.47;4.20;;;12.80;99.90;;;;;;5030705;28;20645;-67
2022/11/06 09:23:03;;;;;;;4.77;4.47;;;12.60;99.90;;;;;;5031172;28;20172;-67
2022/11/06 09:25:29;;;;;;;7.43;4.43;;;12.60;99.90;;;;;;5031165;28;20597;-67
2022/11/06 09:27:55;;;;;;;4.33;4.00;;;13.00;99.90;;;;;;5031011;28;20198;-66
2022/11/06 09:30:22;;;;;;;4.20;3.90;;;13.40;99.90;;;;;;5030621;28;20179;-68
2022/11/06 09:32:53;;;;;;;4.20;3.90;;;14.00;99.90;;;;;;5030065;28;20560;-68
2022/11/06 09:35:20;;;;;;;4.30;4.00;;;14.40;99.90;;;;;;5029740;28;20210;-68
2022/11/06 09:37:46;;;;;;;4.47;4.10;;;14.20;99.90;;;;;;5031563;28;20564;-67
2022/11/06 09:40:17;;;;;;;5.10;4.80;;;13.80;99.90;;;;;;5030629;28;20180;-66
2022/11/06 09:43:15;;;;;;;6.23;4.30;;;13.20;99.90;;;;;;5031368;28;20264;-67
2022/11/06 09:45:42;;;;;;;6.90;4.03;;;12.90;99.90;;;;;;4982530;28;20206;-67
2022/11/06 09:48:10;;;;;;;4.50;4.20;;;12.80;99.90;;;;;;5030934;28;20195;-67
2022/11/06 09:51:05;;;;;;;4.50;4.20;;;12.70;99.90;;;;;;5011198;28;20176;-67
2022/11/06 09:53:39;;;;;;;4.87;4.50;;;12.90;99.90;;;;;;5029124;28;20278;-67
2022/11/06 09:56:09;;;;;;;4.77;4.37;;;13.60;99.90;;;;;;5029811;28;20306;-67
2022/11/06 09:58:37;;;;;;;4.17;3.80;;;14.10;99.90;;;;;;5029531;28;20208;-66
2022/11/06 10:01:10;;;;;;;5.20;4.10;;;14.10;99.90;;;;;;5029326;28;20179;-66
2022/11/06 10:04:01;;;;;;;4.00;3.80;;;14.30;99.90;;;;;;5031554;28;20660;-67
2022/11/06 10:06:27;;;;;;;4.53;3.73;;;14.60;99.90;;;;;;5022226;28;20548;-67
2022/11/06 10:08:58;;;;;;;4.80;4.40;;;14.90;99.90;;;;;;5033483;28;20623;-66
2022/11/06 10:11:49;;;;;;;4.30;3.90;;;15.20;99.90;;;;;;5033080;28;20182;-67
2022/11/06 10:14:53;;;;;;;4.60;4.10;;;15.50;99.90;;;;;;5034552;28;20567;-67
2022/11/06 10:17:45;;;;;;;3.93;3.63;;;15.70;99.90;;;;;;4981076;28;20262;-67
2022/11/06 10:20:18;;;;;;;4.10;3.70;;;15.60;99.90;;;;;;5033108;28;20597;-67
2022/11/06 10:23:14;;;;;;;4.27;3.97;;;15.70;99.90;;;;;;5033073;28;20183;-66
2022/11/06 10:25:48;;;;;;;4.97;4.13;;;15.70;99.90;;;;;;5034519;28;20172;-67
2022/11/06 10:28:27;;;;;;;5.67;4.10;;;15.50;99.90;;;;;;5033427;28;20206;-67
2022/11/06 10:31:09;;;;;;;5.07;4.63;;;15.00;99.90;;;;;;5032846;28;20195;-66
2022/11/06 10:34:02;;;;;;;4.77;4.47;;;14.60;99.90;;;;;;5034521;28;20190;-66
2022/11/06 10:36:44;;;;;;;6.93;4.53;;;14.20;99.90;;;;;;5034120;28;20183;-67
2022/11/06 10:39:17;;;;;;;5.37;4.90;;;13.90;99.90;;;;;;5032986;28;20198;-67
2022/11/06 10:41:48;;;;;;;4.97;4.60;;;13.70;99.90;;;;;;5034089;28;20175;-67
2022/11/06 10:44:36;;;;;;;4.50;4.20;;;13.50;99.90;;;;;;5032932;28;20175;-67
2022/11/06 10:47:21;;;;;;;4.20;4.00;;;13.40;99.90;;;;;;5033689;28;20225;-67
2022/11/06 10:49:53;;;;;;;4.30;4.10;;;13.30;99.90;;;;;;5033906;28;20177;-66
2022/11/06 10:52:46;;;;;;;4.40;4.00;;;13.20;99.90;;;;;;5032549;28;20176;-67
2022/11/06 10:55:35;;;;;;;4.53;4.23;;;13.20;99.90;;;;;;5033787;28;20268;-67
2022/11/06 10:58:02;;;;;;;5.83;4.37;;;13.20;99.90;;;;;;5033721;28;20538;-67
2022/11/06 11:00:28;;;;;;;4.10;3.80;;;13.30;99.90;;;;;;5032192;28;20555;-67
2022/11/06 11:03:06;;;;;;;4.67;4.27;;;13.70;99.90;;;;;;5033730;28;20183;-67
2022/11/06 11:05:41;;;;;;;5.77;5.27;;;14.10;99.90;;;;;;5032307;28;20245;-67
2022/11/06 11:08:30;;;;;;;5.00;4.60;;;14.10;99.90;;;;;;5032306;28;20696;-67
2022/11/06 11:11:01;;;;;;;5.17;4.17;;;14.00;99.90;;;;;;5032012;28;20194;-67
2022/11/06 11:13:27;;;;;;;5.00;4.60;;;13.80;99.90;;;;;;5033783;28;20233;-67
2022/11/06 11:15:53;;;;;;;5.63;5.10;;;13.50;99.90;;;;;;5032586;28;20677;-67
2022/11/06 11:18:33;;;;;;;12.83;9.30;;;13.40;99.90;;;;;;5031949;28;20199;-67
2022/11/06 11:21:26;;;;;;;6.03;5.63;;;13.30;99.90;;;;;;5031782;28;20229;-67
2022/11/06 11:24:10;;;;;;;4.37;4.13;;;13.20;99.90;;;;;;5032780;28;20685;-67
2022/11/06 11:26:48;;;;;;;4.70;4.33;;;13.10;99.90;;;;;;5031910;28;20223;-68
2022/11/06 11:29:22;;;;;;;5.83;5.20;;;13.10;99.90;;;;;;5031737;28;20195;-68
2022/11/06 11:31:51;;;;;;;5.23;4.83;;;13.10;99.90;;;;;;5033332;28;20199;-68
2022/11/06 11:34:24;;;;;;;4.13;3.93;;;13.20;99.90;;;;;;5031636;28;20199;-67
2022/11/06 11:36:57;;;;;;;4.63;4.23;;;13.30;99.90;;;;;;5033066;28;20217;-68
2022/11/06 11:39:35;;;;;;;4.23;3.93;;;13.40;99.90;;;;;;5031684;28;20179;-68
2022/11/06 11:42:22;;;;;;;5.03;4.40;;;13.40;99.90;;;;;;5031963;28;20172;-68
2022/11/06 11:45:11;;;;;;;5.10;4.57;;;13.40;99.90;;;;;;5033066;28;20186;-68
2022/11/06 11:47:42;;;;;;;6.20;5.80;;;13.40;99.90;;;;;;5032611;28;20206;-67
2022/11/06 11:50:29;;;;;;;6.87;4.23;;;13.30;99.90;;;;;;5031325;28;20323;-68
2022/11/06 11:53:17;;;;;;;5.23;4.93;;;13.10;99.90;;;;;;5032814;28;20632;-68
2022/11/06 11:55:46;;;;;;;5.13;4.00;;;13.00;99.90;;;;;;5032828;28;20677;-68
2022/11/06 11:58:21;;;;;;;7.67;5.97;;;12.90;99.90;;;;;;5031182;28;20195;-68
2022/11/06 12:01:08;;;;;;;5.90;4.30;;;13.00;99.90;;;;;;5032470;28;20174;-68
2022/11/06 12:03:40;;;;;;;5.77;5.13;;;13.10;99.90;;;;;;5032789;28;20713;-68
2022/11/06 12:06:16;;;;;;;5.30;4.87;;;13.00;99.90;;;;;;5032481;28;20187;-68
2022/11/06 12:08:48;;;;;;;4.60;4.30;;;13.00;99.90;;;;;;5029264;28;20422;-68
2022/11/06 12:11:21;;;;;;;7.07;4.40;;;13.10;99.90;;;;;;5030934;28;20189;-69
2022/11/06 12:14:25;;;;;;;4.80;4.50;;;13.20;99.90;;;;;;5031085;28;20186;-68
2022/11/06 12:16:56;;;;;;;5.77;4.80;;;13.10;99.90;;;;;;5027634;28;20190;-68
2022/11/06 12:19:25;;;;;;;5.07;4.00;;;13.00;99.90;;;;;;5010906;28;20176;-68
2022/11/06 12:21:58;;;;;;;7.73;4.70;;;13.00;99.90;;;;;;5012355;28;20676;-68
2022/11/06 12:25:07;;;;;;;6.03;5.47;;;13.00;99.90;;;;;;5027743;28;20176;-68
2022/11/06 12:27:40;;;;;;;4.90;4.57;;;13.00;99.90;;;;;;4982964;28;20581;-68
2022/11/06 12:30:24;;;;;;;5.80;5.40;;;13.00;99.90;;;;;;5016592;28;20222;-67
2022/11/06 12:33:14;;;;;;;4.53;4.23;;;13.20;99.90;;;;;;5031833;28;20175;-68
2022/11/06 12:35:51;;;;;;;9.13;6.83;;;13.30;99.90;;;;;;5030494;28;20207;-68
2022/11/06 12:38:20;;;;;;;4.53;4.23;;;13.40;99.90;;;;;;5030323;28;20199;-68
2022/11/06 12:41:12;;;;;;;5.13;4.73;;;13.40;99.90;;;;;;5031712;28;20172;-68
2022/11/06 12:43:45;;;;;;;4.70;4.40;;;13.30;99.90;;;;;;5030047;28;20266;-68
2022/11/06 12:46:22;;;;;;;4.37;4.00;;;13.30;99.90;;;;;;5031805;28;20171;-68
2022/11/06 12:49:21;;;;;;;4.07;3.80;;;13.60;99.90;;;;;;5031366;28;20195;-68
2022/11/06 12:51:56;;;;;;;4.57;4.27;;;14.10;99.90;;;;;;5031727;28;20182;-68
2022/11/06 12:54:48;;;;;;;4.20;3.90;;;14.40;99.90;;;;;;5031294;28;20198;-67
2022/11/06 12:57:42;;;;;;;4.70;4.37;;;14.50;99.90;;;;;;5030308;28;20167;-68
2022/11/06 13:00:20;;;;;;;4.33;4.03;;;14.60;99.90;;;;;;5011521;28;20246;-68
2022/11/06 13:03:19;;;;;;;4.23;3.93;;;14.50;99.90;;;;;;5028562;28;20258;-68
2022/11/06 13:06:19;;;;;;;6.17;4.43;;;14.40;99.90;;;;;;5030934;28;20653;-68
2022/11/06 13:09:03;;;;;;;5.23;5.00;;;14.20;99.90;;;;;;5049518;22;20465;-66
2022/11/06 13:11:41;;;;;;;5.90;5.30;;;14.00;99.90;;;;;;5011888;28;20203;-66
2022/11/06 13:14:19;;;;;;;4.83;4.53;;;13.80;99.90;;;;;;5012490;28;20184;-66
2022/11/06 13:16:51;;;;;;;5.20;4.90;;;13.70;99.90;;;;;;5031119;28;20171;-65
2022/11/06 13:19:29;;;;;;;5.33;4.93;;;13.70;99.90;;;;;;5031159;28;20195;-66
2022/11/06 13:22:28;;;;;;;4.70;4.50;;;13.70;99.90;;;;;;5030295;28;20716;-66
2022/11/06 13:25:35;;;;;;;4.57;4.37;;;13.80;99.90;;;;;;5017113;28;20195;-65
2022/11/06 13:28:40;;;;;;;4.30;4.10;;;13.70;99.90;;;;;;4970527;28;20233;-65
2022/11/06 13:31:09;;;;;;;4.47;4.17;;;13.70;99.90;;;;;;5006306;28;20195;-66
2022/11/06 13:33:55;;;;;;;3.60;3.50;;;13.70;99.90;;;;;;5019735;28;20194;-66